Terminal Aerodrome Forecast
Issued by NWS Green Bay, WI

Home | Current Version | Previous Version | Text Only | Print | Product List | Glossary Off
Versions: 1 2 3 4 5 6 7 8 9 10 11 12 13 14 15 16 17 18 19 20 21 22 23 24 25 26 27 28 29 30 31 32

189
FTUS43 KGRB 211721
TAFGRB
TAF
KGRB 211721Z 2118/2218 19014G22KT P6SM FEW050 SCT250
     FM220000 16011KT P6SM SCT120 BKN250 WS018/20045KT
     FM220700 17011KT P6SM SCT035 OVC060 WS018/21045KT PROB30
      2208/2212 5SM -SHRA BR BKN035
     FM221200 18011KT P6SM -SHRA SCT020 OVC040 WS018/21045KT
      TEMPO 2212/2216 4SM -TSRA BR BKN020CB
     FM221600 24011KT 5SM -SHRA BR OVC020=

USA.gov is the U.S. government's official web portal to all federal, state and local government web resources and services.